Davis Station, South Carolina
Current Conditions -  °F | °C
As of 9:55 PM on Sunday 23 Nov 2014 (Local Time) from KCKI Reporting Station
Thunderstorm Thunderstorm  
Wind Chill: 68°   Ceiling: NA
Heat Index: 68°   Visibility: 7mi
Dew Point: 68°   Wind: 10mph
Humidity: 100%   Direction: 240°WSW
Pressure: 29.88"   Gusts: 18mph
Location:  33.6°N, 80.26°W
Report Text: KCKI 240255Z AUTO 24009G16KT 7SM TSRA 20/20 A2988 RMK AO2 LTG DSNT ALQS P0010
Loading
Personal Weather Stations






























Interactive Weather Map New forecast layout! Learn more

10-Day Weather Forecast

Advertisements
Track Severe Weather on mobile